Time;durP1;ratioP1;P1;durP2;ratioP2;P2;SDS_P1;SDS_P2;PMS_P1;PMS_P2;Temp;Humidity;BMP_temperature;BMP_pressure;BME280_temperature;BME280_humidity;BME280_pressure;Samples;Min_cycle;Max_cycle;Signal;HPM_P1;HPM_P2
2022/03/22 00:00:55;;;;;;;79.60;42.27;;;;;;;1.01;58.57;103654.13;1742218;80;21926;-74
2022/03/22 00:03:24;;;;;;;82.02;42.95;;;;;;;1.01;58.60;103655.42;1741263;81;21055;-74
2022/03/22 00:05:49;;;;;;;81.32;42.67;;;;;;;0.99;58.65;103656.54;1709628;82;21102;-74
2022/03/22 00:08:15;;;;;;;85.72;43.13;;;;;;;0.97;58.67;103653.77;1684404;84;21220;-74
2022/03/22 00:10:42;;;;;;;78.78;40.88;;;;;;;0.95;58.72;103650.09;1731911;81;21111;-74
2022/03/22 00:13:09;;;;;;;76.72;40.10;;;;;;;0.95;58.69;103652.69;1740315;80;22541;-74
2022/03/22 00:15:35;;;;;;;77.45;41.77;;;;;;;0.96;58.69;103654.55;1746316;81;21534;-74
2022/03/22 00:18:02;;;;;;;73.47;40.60;;;;;;;0.95;58.77;103651.39;1742068;80;21046;-74
2022/03/22 00:32:30;;;;;;;79.35;41.70;;;;;;;0.81;59.01;103655.45;1693336;82;21683;-75
2022/03/22 00:34:56;;;;;;;82.15;42.10;;;;;;;0.78;59.19;103658.98;1699683;81;21153;-75
2022/03/22 00:37:24;;;;;;;78.83;42.00;;;;;;;0.76;59.25;103658.80;1731393;81;21080;-74
2022/03/22 00:39:51;;;;;;;81.42;42.53;;;;;;;0.75;59.34;103661.22;1709868;83;21085;-74
2022/03/22 00:42:18;;;;;;;84.28;42.93;;;;;;;0.74;59.43;103658.10;1732537;81;21787;-75
2022/03/22 00:44:45;;;;;;;87.17;43.92;;;;;;;0.70;59.48;103652.95;1733595;81;21155;-75
2022/03/22 00:47:12;;;;;;;81.95;42.90;;;;;;;0.69;59.58;103652.77;1731874;81;21071;-75
2022/03/22 00:49:38;;;;;;;78.85;43.48;;;;;;;0.66;59.57;103656.34;1724688;81;21108;-75
2022/03/22 00:52:05;;;;;;;82.75;43.48;;;;;;;0.65;59.62;103654.09;1709785;82;21113;-75
2022/03/22 00:54:33;;;;;;;80.65;41.33;;;;;;;0.64;59.69;103651.33;1705804;82;23096;-75
2022/03/22 00:57:00;;;;;;;71.53;39.90;;;;;;;0.62;59.72;103653.77;1695952;82;21061;-74
2022/03/22 01:02:11;;;;;;;79.25;42.08;;;;;;;0.63;59.83;103651.71;1696872;82;21089;-74
2022/03/22 01:04:38;;;;;;;78.37;41.98;;;;;;;0.63;59.81;103653.00;1698294;82;21051;-74
2022/03/22 01:07:05;;;;;;;79.55;42.98;;;;;;;0.62;59.82;103646.34;1688263;83;21914;-74
2022/03/22 01:09:32;;;;;;;78.78;42.88;;;;;;;0.60;59.88;103649.15;1700089;82;21321;-75
2022/03/22 01:11:58;;;;;;;85.03;41.65;;;;;;;0.56;59.93;103650.13;1697307;82;21092;-74
2022/03/22 01:14:28;;;;;;;75.90;40.60;;;;;;;0.55;59.99;103648.27;1704415;82;21709;-74
2022/03/22 01:16:54;;;;;;;73.72;40.20;;;;;;;0.55;60.06;103644.38;1696236;82;21089;-75
2022/03/22 01:19:21;;;;;;;74.85;39.67;;;;;;;0.53;60.03;103641.99;1691145;83;22601;-74
2022/03/22 01:21:49;;;;;;;71.25;38.83;;;;;;;0.51;60.08;103648.67;1747229;80;21662;-74
2022/03/22 01:24:16;;;;;;;73.40;40.78;;;;;;;0.50;60.12;103647.20;1746191;80;21048;-74
2022/03/22 01:26:42;;;;;;;75.30;40.38;;;;;;;0.50;60.16;103636.45;1739321;80;21139;-74
2022/03/22 01:29:11;;;;;;;83.55;41.25;;;;;;;0.51;60.13;103637.40;1743525;80;21087;-75
2022/03/22 01:31:38;;;;;;;75.72;40.35;;;;;;;0.51;60.11;103636.10;1744739;80;21765;-75
2022/03/22 01:34:04;;;;;;;79.15;40.15;;;;;;;0.52;60.18;103640.52;1714919;82;21076;-75
2022/03/22 01:36:31;;;;;;;77.05;41.83;;;;;;;0.51;60.19;103638.31;1703296;82;22337;-75
2022/03/22 01:38:59;;;;;;;74.40;39.75;;;;;;;0.52;60.22;103637.54;1728996;81;21096;-75
2022/03/22 01:41:25;;;;;;;79.50;41.50;;;;;;;0.52;60.23;103633.66;1729065;81;21099;-75
2022/03/22 01:43:52;;;;;;;89.55;43.35;;;;;;;0.52;60.24;103634.95;1730456;80;21734;-75
2022/03/22 01:46:23;;;;;;;84.85;40.33;;;;;;;0.53;60.30;103639.40;1726522;81;21077;-75
2022/03/22 01:48:49;;;;;;;84.45;43.75;;;;;;;0.52;60.30;103632.36;1737526;81;21060;-74
2022/03/22 01:51:20;;;;;;;85.57;45.78;;;;;;;0.51;60.31;103631.83;1724172;81;21068;-74
2022/03/22 01:53:47;;;;;;;78.75;42.40;;;;;;;0.51;60.36;103638.31;1728614;80;21092;-75
2022/03/22 01:56:14;;;;;;;76.70;41.18;;;;;;;0.50;60.32;103636.84;1725033;81;21889;-74
2022/03/22 01:58:41;;;;;;;78.40;40.45;;;;;;;0.48;60.37;103628.88;1731204;81;21014;-74
2022/03/22 02:06:39;;;;;;;80.95;41.33;;;;;;;0.39;60.65;103630.44;1714976;81;21578;-75
2022/03/22 02:09:06;;;;;;;79.22;39.95;;;;;;;0.38;60.75;103632.50;1722785;81;22545;-75
2022/03/22 02:11:32;;;;;;;76.75;41.88;;;;;;;0.34;60.61;103635.50;1734918;81;21075;-75
2022/03/22 02:13:59;;;;;;;73.25;40.90;;;;;;;0.29;60.77;103634.97;1738418;80;21643;-75
2022/03/22 02:16:25;;;;;;;75.37;41.05;;;;;;;0.27;60.75;103636.85;1725901;81;21188;-75
2022/03/22 02:18:52;;;;;;;83.30;41.30;;;;;;;0.22;60.86;103638.91;1727735;81;21081;-75
2022/03/22 02:21:19;;;;;;;83.92;42.90;;;;;;;0.17;61.00;103639.69;1689964;81;22540;-75
2022/03/22 02:23:52;;;;;;;83.30;42.78;;;;;;;0.12;60.98;103641.22;1725631;81;21053;-75
2022/03/22 02:26:20;;;;;;;88.30;44.13;;;;;;;0.07;61.15;103645.85;1730611;81;21066;-75
2022/03/22 02:28:46;;;;;;;88.92;42.98;;;;;;;0.03;61.24;103637.20;1726652;81;21095;-75
2022/03/22 02:31:13;;;;;;;83.12;43.80;;;;;;;0.02;61.33;103640.55;1724444;81;21280;-75
2022/03/22 02:33:43;;;;;;;82.72;43.08;;;;;;;-0.02;61.46;103635.73;1724842;81;22499;-75
2022/03/22 02:36:10;;;;;;;77.62;42.08;;;;;;;-0.03;61.53;103641.69;1725497;81;21077;-75
2022/03/22 02:38:37;;;;;;;82.27;43.05;;;;;;;-0.06;61.63;103634.84;1724874;81;22439;-75
2022/03/22 02:41:05;;;;;;;83.00;43.15;;;;;;;-0.07;61.79;103640.41;1733276;81;21069;-75
2022/03/22 02:43:32;;;;;;;81.82;41.77;;;;;;;-0.11;61.77;103640.81;1736173;81;21107;-75
2022/03/22 02:45:59;;;;;;;77.92;44.08;;;;;;;-0.18;61.73;103642.14;1736831;81;21987;-76
2022/03/22 02:48:26;;;;;;;87.82;45.52;;;;;;;-0.24;61.86;103641.45;1727944;81;21366;-75
2022/03/22 02:50:53;;;;;;;91.92;47.45;;;;;;;-0.25;62.07;103650.86;1724420;81;21136;-75
2022/03/22 02:53:20;;;;;;;92.60;50.60;;;;;;;-0.29;62.13;103644.78;1724815;81;21116;-75
2022/03/22 02:55:46;;;;;;;96.02;48.92;;;;;;;-0.34;62.21;103643.70;1707385;81;21006;-75
2022/03/22 02:58:13;;;;;;;102.60;51.18;;;;;;;-0.36;62.41;103649.98;1645736;85;22002;-75
2022/03/22 03:00:40;;;;;;;108.00;56.77;;;;;;;-0.38;62.56;103647.59;1674866;84;21199;-75
2022/03/22 03:03:07;;;;;;;99.80;52.10;;;;;;;-0.40;62.69;103643.91;1675130;84;21117;-76
2022/03/22 03:05:34;;;;;;;94.58;49.93;;;;;;;-0.41;62.77;103652.06;1646913;85;21118;-76
2022/03/22 03:08:00;;;;;;;97.92;50.52;;;;;;;-0.44;62.89;103647.81;1694814;83;21603;-76
2022/03/22 03:10:27;;;;;;;87.57;48.20;;;;;;;-0.46;63.05;103646.72;1694586;83;21735;-76
2022/03/22 03:13:02;;;;;;;90.28;48.23;;;;;;;-0.47;63.09;103643.59;1646106;85;21063;-75
2022/03/22 03:15:29;;;;;;;88.20;48.42;;;;;;;-0.46;63.29;103643.22;1681174;84;21565;-86
2022/03/22 03:17:55;;;;;;;89.20;49.05;;;;;;;-0.45;63.37;103641.16;1666266;83;21101;-76
2022/03/22 03:20:22;;;;;;;95.92;49.25;;;;;;;-0.45;63.41;103640.81;1700266;82;21598;-76
2022/03/22 03:22:49;;;;;;;90.72;49.10;;;;;;;-0.42;63.36;103642.82;1692779;83;21732;-77
2022/03/22 03:25:15;;;;;;;93.78;49.45;;;;;;;-0.39;63.40;103644.48;1695573;83;21092;-76
2022/03/22 03:27:42;;;;;;;99.62;49.27;;;;;;;-0.39;63.42;103641.89;1695811;83;21088;-77
2022/03/22 03:30:09;;;;;;;96.22;50.38;;;;;;;-0.39;63.35;103649.66;1694492;83;21164;-77
2022/03/22 03:32:36;;;;;;;97.33;48.98;;;;;;;-0.42;63.38;103647.61;1692995;82;21101;-77
2022/03/22 03:35:04;;;;;;;93.75;49.30;;;;;;;-0.44;63.37;103651.69;1687543;83;21727;-77
2022/03/22 03:37:34;;;;;;;91.22;46.18;;;;;;;-0.46;63.38;103646.72;1690669;83;21023;-77
2022/03/22 03:40:00;;;;;;;90.77;49.65;;;;;;;-0.49;63.43;103648.97;1692298;83;21343;-77
2022/03/22 03:42:26;;;;;;;103.50;49.85;;;;;;;-0.51;63.57;103653.02;1698932;83;21133;-77
2022/03/22 03:47:38;;;;;;;97.75;48.75;;;;;;;-0.52;63.65;103652.86;1691903;83;22894;-77
2022/03/22 03:50:06;;;;;;;96.75;48.83;;;;;;;-0.55;63.77;103649.91;1694414;83;21066;-77
2022/03/22 03:52:35;;;;;;;96.10;49.48;;;;;;;-0.57;63.84;103650.10;1693694;83;21136;-77
2022/03/22 03:55:03;;;;;;;93.42;48.15;;;;;;;-0.59;63.97;103649.54;1710181;80;21017;-77
2022/03/22 03:57:30;;;;;;;92.53;47.58;;;;;;;-0.57;64.00;103650.10;1725817;81;21124;-77
2022/03/22 03:59:57;;;;;;;97.15;47.90;;;;;;;-0.57;64.07;103657.48;1724438;81;21672;-77
2022/03/22 04:02:24;;;;;;;96.50;48.38;;;;;;;-0.55;64.13;103649.91;1724396;81;21048;-77
2022/03/22 04:04:53;;;;;;;87.10;48.28;;;;;;;-0.56;64.09;103652.88;1725470;80;21084;-77
2022/03/22 04:07:22;;;;;;;88.30;46.63;;;;;;;-0.56;64.12;103651.58;1739537;81;21056;-77
2022/03/22 04:09:49;;;;;;;89.92;46.02;;;;;;;-0.57;64.08;103648.43;1752411;81;22345;-77
2022/03/22 04:12:15;;;;;;;89.45;44.60;;;;;;;-0.56;64.16;103651.58;1725944;81;21847;-76
2022/03/22 04:14:42;;;;;;;98.50;48.15;;;;;;;-0.54;64.20;103649.18;1736514;80;21049;-77
2022/03/22 04:17:08;;;;;;;88.27;46.25;;;;;;;-0.54;64.22;103656.94;1725743;81;21088;-76
2022/03/22 04:19:36;;;;;;;88.03;46.10;;;;;;;-0.58;64.20;103656.95;1735606;81;21052;-76
2022/03/22 04:22:04;;;;;;;83.55;44.95;;;;;;;-0.58;64.20;103653.07;1724758;81;21042;-77
2022/03/22 04:24:30;;;;;;;91.08;47.27;;;;;;;-0.60;64.26;103651.59;1724613;81;21715;-77
2022/03/22 04:32:41;;;;;;;90.70;46.85;;;;;;;-0.59;64.22;103650.83;1725112;81;21077;-77
2022/03/22 04:34:56;;;;;;;91.92;47.93;;;;;;;-0.68;64.36;103656.22;1725815;81;21736;-76
2022/03/22 04:37:24;;;;;;;96.70;48.98;;;;;;;-0.68;64.49;103651.43;1727713;81;21809;-76
2022/03/22 04:39:51;;;;;;;88.20;44.95;;;;;;;-0.66;64.55;103656.06;1732739;82;21056;-77
2022/03/22 04:42:17;;;;;;;101.82;48.50;;;;;;;-0.65;64.56;103653.09;1732656;81;21064;-77
2022/03/22 04:44:44;;;;;;;105.95;51.33;;;;;;;-0.66;64.63;103656.06;1738197;82;21503;-77
2022/03/22 04:47:11;;;;;;;95.35;51.10;;;;;;;-0.64;64.62;103654.92;1730104;81;21148;-77
2022/03/22 04:49:37;;;;;;;100.00;51.37;;;;;;;-0.64;64.61;103649.40;1732976;81;21744;-77
2022/03/22 04:57:35;;;;;;;92.47;49.23;;;;;;;-0.27;64.88;103656.61;1721294;81;21115;-79
2022/03/22 05:00:02;;;;;;;103.12;49.75;;;;;;;-0.14;64.75;103653.39;1732211;81;21080;-79
2022/03/22 05:02:29;;;;;;;96.80;50.15;;;;;;;-0.05;64.62;103657.42;1735134;82;22427;-78
2022/03/22 05:04:56;;;;;;;103.53;50.58;;;;;;;-0.01;64.43;103651.84;1727852;80;21084;-78
2022/03/22 05:07:22;;;;;;;96.25;51.70;;;;;;;0.02;64.26;103655.14;1730516;82;22500;-78
2022/03/22 05:09:49;;;;;;;98.22;50.05;;;;;;;0.00;64.08;103654.99;1727133;81;21100;-78
2022/03/22 05:12:15;;;;;;;90.17;47.75;;;;;;;0.03;64.13;103651.44;1735160;82;21555;-78
2022/03/22 05:14:42;;;;;;;97.57;49.30;;;;;;;0.08;64.14;103651.59;1731066;82;21736;-79
2022/03/22 05:17:11;;;;;;;99.62;51.42;;;;;;;0.16;64.19;103656.35;1738883;81;21056;-77
2022/03/22 05:19:41;;;;;;;104.12;51.05;;;;;;;0.25;64.21;103650.01;1733339;82;21041;-77
2022/03/22 05:22:07;;;;;;;95.85;48.95;;;;;;;0.38;64.31;103653.23;1728554;82;21069;-77
2022/03/22 05:24:36;;;;;;;99.10;50.45;;;;;;;0.48;64.21;103652.59;1724899;81;21168;-77
2022/03/22 05:27:03;;;;;;;105.43;52.60;;;;;;;0.53;64.03;103651.45;1732783;81;21065;-77
2022/03/22 05:29:30;;;;;;;98.12;49.40;;;;;;;0.59;64.13;103652.12;1728280;81;21042;-77
2022/03/22 05:31:56;;;;;;;101.15;51.53;;;;;;;0.67;64.08;103650.38;1719346;81;21053;-74
2022/03/22 05:34:23;;;;;;;101.35;51.00;;;;;;;0.75;63.96;103656.98;1725634;81;21136;-74
2022/03/22 05:36:50;;;;;;;93.30;50.73;;;;;;;0.79;63.85;103646.58;1733338;81;21045;-75
2022/03/22 05:39:16;;;;;;;99.17;51.33;;;;;;;0.90;63.99;103648.69;1735723;82;22007;-74
2022/03/22 05:41:44;;;;;;;89.37;47.95;;;;;;;0.99;63.82;103640.06;1726006;81;20988;-79
2022/03/22 05:44:12;;;;;;;87.62;46.55;;;;;;;1.05;63.80;103645.92;1729781;82;21684;-78
2022/03/22 05:46:40;;;;;;;102.07;52.05;;;;;;;1.14;64.17;103648.23;1720595;81;21566;-78
2022/03/22 05:49:08;;;;;;;106.12;52.27;;;;;;;1.27;63.99;103644.02;1734430;81;21081;-74
2022/03/22 05:51:36;;;;;;;100.65;53.10;;;;;;;1.31;63.82;103643.23;1724834;81;21815;-78
2022/03/22 05:54:03;;;;;;;99.40;53.48;;;;;;;1.36;63.75;103651.50;1730415;81;21052;-78
2022/03/22 05:56:30;;;;;;;97.80;52.50;;;;;;;1.42;63.71;103644.77;1706815;81;21503;-78
2022/03/22 05:58:58;;;;;;;112.97;58.10;;;;;;;1.50;63.63;103647.45;1726676;81;21099;-78
2022/03/22 06:01:27;;;;;;;110.22;56.88;;;;;;;1.58;63.61;103651.22;1735589;81;21131;-78
2022/03/22 06:03:54;;;;;;;114.30;58.15;;;;;;;1.67;63.57;103650.56;1727943;81;21752;-79
2022/03/22 06:06:21;;;;;;;116.10;59.90;;;;;;;1.72;63.38;103653.25;1735263;82;21132;-79
2022/03/22 06:08:49;;;;;;;103.17;56.73;;;;;;;1.77;63.37;103642.46;1735469;80;21054;-79
2022/03/22 06:11:17;;;;;;;106.05;55.00;;;;;;;1.83;63.31;103647.91;1724803;81;21104;-78
2022/03/22 06:13:43;;;;;;;107.15;55.12;;;;;;;1.88;63.30;103646.73;1733392;81;21443;-79
2022/03/22 06:16:10;;;;;;;102.00;56.20;;;;;;;1.96;63.29;103644.04;1729974;82;22640;-79
2022/03/22 06:18:37;;;;;;;101.65;53.75;;;;;;;2.05;63.20;103644.63;1733716;80;21144;-78
2022/03/22 06:21:03;;;;;;;102.17;53.87;;;;;;;2.14;63.05;103649.89;1727074;81;21080;-78
2022/03/22 06:23:33;;;;;;;96.55;52.43;;;;;;;2.20;62.87;103644.42;1737936;80;21013;-78
2022/03/22 06:25:59;;;;;;;91.75;51.98;;;;;;;2.26;62.72;103643.37;1726110;82;21632;-78
2022/03/22 06:28:26;;;;;;;95.45;49.55;;;;;;;2.36;62.68;103640.44;1749774;81;21771;-78
2022/03/22 06:30:53;;;;;;;92.72;51.25;;;;;;;2.47;62.60;103643.78;1731173;82;21072;-78
2022/03/22 06:33:22;;;;;;;91.50;44.58;;;;;;;2.55;62.66;103645.48;1733093;82;21084;-79
2022/03/22 06:35:48;;;;;;;82.88;44.00;;;;;;;2.66;62.31;103634.91;1722183;81;21042;-79
2022/03/22 06:38:15;;;;;;;81.50;45.58;;;;;;;2.74;62.10;103637.94;1737479;81;21078;-79
2022/03/22 06:40:43;;;;;;;80.95;43.40;;;;;;;2.83;61.99;103641.84;1727444;81;21798;-79
2022/03/22 06:43:14;;;;;;;92.70;51.28;;;;;;;2.92;61.79;103642.79;1735344;81;21303;-79
2022/03/22 06:45:44;;;;;;;94.72;52.30;;;;;;;3.00;61.63;103638.36;1727311;81;21320;-78
2022/03/22 06:48:11;;;;;;;83.55;43.13;;;;;;;3.11;61.53;103637.38;1727947;81;21174;-79
2022/03/22 06:50:38;;;;;;;83.07;41.98;;;;;;;3.23;61.44;103639.39;1736367;81;21033;-79
2022/03/22 06:53:09;;;;;;;75.47;41.40;;;;;;;3.31;61.17;103638.11;1733517;81;21737;-80
2022/03/22 06:55:35;;;;;;;77.58;41.23;;;;;;;3.38;61.08;103635.75;1731269;80;21235;-80
2022/03/22 06:58:01;;;;;;;79.62;40.95;;;;;;;3.48;60.91;103636.28;1701211;82;21081;-80
2022/03/22 07:00:28;;;;;;;77.62;39.88;;;;;;;3.56;60.83;103640.95;1646619;85;21124;-80
2022/03/22 07:02:55;;;;;;;79.80;41.05;;;;;;;3.67;60.68;103637.73;1675366;84;21049;-80
2022/03/22 07:05:22;;;;;;;77.92;41.75;;;;;;;3.76;60.50;103641.65;1646910;85;21881;-81
2022/03/22 07:07:49;;;;;;;71.70;40.08;;;;;;;3.86;60.37;103640.47;1646572;85;21094;-80
2022/03/22 07:10:21;;;;;;;86.85;41.50;;;;;;;3.95;60.24;103640.08;1680925;83;21104;-80
2022/03/22 07:13:01;;;;;;;69.60;38.85;;;;;;;4.05;60.08;103638.92;1691077;81;21063;-80
2022/03/22 07:15:33;;;;;;;80.00;41.55;;;;;;;4.16;59.97;103635.12;1686188;83;21132;-81
2022/03/22 07:18:03;;;;;;;73.10;40.50;;;;;;;4.27;60.05;103630.56;1689615;83;21764;-80
2022/03/22 07:20:30;;;;;;;70.60;40.83;;;;;;;4.39;59.93;103638.28;1681313;83;21112;-80
2022/03/22 07:22:57;;;;;;;84.90;47.05;;;;;;;4.49;59.85;103632.26;1688245;83;21432;-81
2022/03/22 07:25:24;;;;;;;94.77;49.70;;;;;;;4.61;59.76;103632.50;1702238;83;21297;-80
2022/03/22 07:27:51;;;;;;;91.75;48.98;;;;;;;4.71;59.63;103629.08;1646448;85;21086;-81
2022/03/22 07:30:17;;;;;;;91.15;48.25;;;;;;;4.82;59.50;103631.95;1667325;84;21796;-79
2022/03/22 07:32:45;;;;;;;83.42;46.80;;;;;;;4.91;59.33;103630.97;1686467;83;38461;-80
2022/03/22 07:35:13;;;;;;;81.28;46.37;;;;;;;5.00;59.23;103635.36;1655929;85;21093;-80
2022/03/22 07:37:40;;;;;;;82.53;46.33;;;;;;;5.10;59.05;103627.99;1675584;84;21810;-79
2022/03/22 07:40:10;;;;;;;90.17;48.40;;;;;;;5.21;58.95;103635.53;1704195;83;21083;-79
2022/03/22 07:42:37;;;;;;;82.90;46.73;;;;;;;5.32;58.78;103631.31;1685007;83;23325;-78
2022/03/22 07:45:09;;;;;;;102.27;57.90;;;;;;;5.43;58.69;103631.52;1646862;85;21104;-78
2022/03/22 07:47:38;;;;;;;100.12;55.33;;;;;;;5.56;58.50;103631.36;1676528;83;21096;-79
2022/03/22 07:53:05;;;;;;;90.32;51.77;;;;;;;5.79;58.42;103629.52;1697132;83;21056;-81
2022/03/22 07:55:32;;;;;;;92.80;51.25;;;;;;;5.94;58.44;103626.06;1693268;83;21798;-80
2022/03/22 07:57:59;;;;;;;108.70;59.10;;;;;;;6.08;58.43;103620.42;1666098;84;21113;-79
2022/03/22 08:00:26;;;;;;;104.23;59.53;;;;;;;6.23;58.32;103630.00;1676667;84;21128;-80
2022/03/22 08:03:00;;;;;;;102.27;56.00;;;;;;;6.33;58.14;103630.05;1658895;85;21055;-80
2022/03/22 08:05:27;;;;;;;84.55;50.25;;;;;;;6.47;58.05;103630.34;1658309;84;21097;-79
2022/03/22 08:07:54;;;;;;;89.55;52.00;;;;;;;6.60;57.99;103630.23;1663905;84;22646;-80
2022/03/22 08:10:22;;;;;;;91.32;51.73;;;;;;;6.75;57.87;103628.44;1677324;84;21152;-80
2022/03/22 08:12:49;;;;;;;98.33;56.33;;;;;;;6.88;57.82;103629.11;1646241;85;21665;-80
2022/03/22 08:15:16;;;;;;;92.27;57.78;;;;;;;6.99;57.69;103625.71;1678040;82;21092;-80
2022/03/22 08:17:42;;;;;;;99.35;59.90;;;;;;;7.12;57.67;103630.30;1658526;85;21137;-78
2022/03/22 08:20:10;;;;;;;103.30;58.98;;;;;;;7.20;57.53;103624.91;1684519;83;21739;-79
2022/03/22 08:22:59;;;;;;;110.57;60.52;;;;;;;7.31;57.45;103615.34;1678408;84;21084;-79
2022/03/22 08:25:29;;;;;;;100.58;58.10;;;;;;;7.40;57.27;103619.14;1700816;82;21640;-79
2022/03/22 08:27:57;;;;;;;92.57;56.23;;;;;;;7.50;57.15;103616.89;1706666;82;21642;-80
2022/03/22 08:30:24;;;;;;;86.95;52.13;;;;;;;7.58;57.06;103609.27;1708818;82;21124;-79
2022/03/22 08:32:53;;;;;;;86.57;52.43;;;;;;;7.70;56.98;103612.00;1708925;82;22548;-79
2022/03/22 08:35:20;;;;;;;84.17;50.00;;;;;;;7.81;56.82;103608.56;1697174;82;21088;-79
2022/03/22 08:37:47;;;;;;;92.08;52.90;;;;;;;7.93;56.68;103606.02;1707104;82;21132;-79
2022/03/22 08:40:14;;;;;;;81.57;48.38;;;;;;;8.07;56.50;103601.51;1707435;82;21104;-79
2022/03/22 08:42:47;;;;;;;84.52;51.50;;;;;;;8.20;56.28;103597.23;1706730;82;21045;-80
2022/03/22 08:45:16;;;;;;;85.10;49.05;;;;;;;8.31;56.09;103597.28;1661344;85;22952;-80
2022/03/22 08:47:45;;;;;;;100.47;55.08;;;;;;;8.45;55.95;103594.50;1714240;82;21088;-80
2022/03/22 08:50:14;;;;;;;82.75;47.08;;;;;;;8.58;55.83;103599.02;1717796;82;21104;-80
2022/03/22 08:52:41;;;;;;;74.50;44.40;;;;;;;8.74;55.42;103592.84;1707791;82;21076;-80
2022/03/22 08:55:09;;;;;;;69.20;43.23;;;;;;;8.92;54.99;103592.05;1709185;82;21120;-80
2022/03/22 08:57:36;;;;;;;71.53;44.05;;;;;;;9.10;54.74;103595.20;1738288;80;22491;-80
2022/03/22 09:00:08;;;;;;;77.58;44.50;;;;;;;9.26;54.42;103589.37;1755400;81;21068;-79
2022/03/22 09:02:34;;;;;;;89.35;46.95;;;;;;;9.44;53.75;103588.55;1751794;80;21342;-79
2022/03/22 09:07:47;;;;;;;54.75;34.33;;;;;;;9.75;52.87;103584.66;1750369;80;21057;-78
2022/03/22 09:10:14;;;;;;;61.37;35.03;;;;;;;9.90;52.27;103584.05;1754180;81;21823;-79
2022/03/22 09:12:42;;;;;;;54.65;32.45;;;;;;;10.06;52.10;103581.22;1736809;80;21009;-78
2022/03/22 09:15:15;;;;;;;64.05;36.08;;;;;;;10.18;51.60;103579.89;1736681;80;21021;-78
2022/03/22 09:17:41;;;;;;;50.65;32.83;;;;;;;10.33;51.23;103581.43;1758549;80;21079;-80
2022/03/22 09:20:14;;;;;;;53.10;30.85;;;;;;;10.49;50.86;103576.42;1750518;80;21071;-80
2022/03/22 09:22:44;;;;;;;48.90;30.70;;;;;;;10.63;50.66;103572.15;1727716;81;21768;-80
2022/03/22 09:25:11;;;;;;;51.28;30.00;;;;;;;10.73;50.21;103571.97;1729729;81;21094;-80
2022/03/22 09:27:38;;;;;;;47.60;29.95;;;;;;;10.85;49.84;103569.30;1753652;81;21544;-80
2022/03/22 09:30:06;;;;;;;48.17;31.27;;;;;;;10.97;49.50;103571.84;1752653;80;21262;-79
2022/03/22 09:32:34;;;;;;;47.35;29.32;;;;;;;11.09;49.41;103564.38;1727975;81;21589;-80
2022/03/22 09:35:01;;;;;;;42.80;28.92;;;;;;;11.13;49.04;103544.80;1727982;81;21757;-79
2022/03/22 09:37:28;;;;;;;53.40;34.45;;;;;;;11.32;48.58;103557.11;1753621;80;21131;-79
2022/03/22 09:39:56;;;;;;;57.05;32.17;;;;;;;11.37;48.38;103551.70;1756409;80;21079;-79
2022/03/22 09:42:23;;;;;;;55.10;32.55;;;;;;;11.43;48.39;103553.45;1733191;80;21185;-80
2022/03/22 09:44:50;;;;;;;45.78;30.52;;;;;;;11.54;48.34;103550.19;1756381;80;21684;-80
2022/03/22 09:47:17;;;;;;;78.20;53.08;;;;;;;11.64;48.10;103546.04;1755420;80;21752;-79
2022/03/22 09:49:44;;;;;;;43.55;27.85;;;;;;;11.76;47.71;103544.59;1755883;80;21032;-80
2022/03/22 09:52:11;;;;;;;41.95;26.23;;;;;;;11.84;47.60;103544.70;1746275;80;21095;-80
2022/03/22 09:54:39;;;;;;;40.52;24.80;;;;;;;11.98;47.14;103546.94;1698378;82;21065;-80
2022/03/22 09:57:06;;;;;;;37.25;24.10;;;;;;;12.08;46.78;103543.14;1722660;81;21078;-80
2022/03/22 09:59:34;;;;;;;32.48;23.20;;;;;;;12.17;46.43;103546.38;1691231;84;22466;-80
2022/03/22 10:02:01;;;;;;;35.10;23.80;;;;;;;12.26;45.90;103538.13;1721757;82;21144;-80
2022/03/22 10:04:43;;;;;;;40.83;24.57;;;;;;;12.35;45.67;103540.41;1730917;81;21081;-80
2022/03/22 10:07:20;;;;;;;39.85;23.65;;;;;;;12.42;45.53;103532.05;1723106;79;21036;-80
2022/03/22 10:09:56;;;;;;;33.33;24.95;;;;;;;12.51;45.04;103528.66;1738599;81;21673;-80
2022/03/22 10:12:31;;;;;;;34.90;23.60;;;;;;;12.58;45.00;103521.63;1735776;81;21779;-80
2022/03/22 10:15:11;;;;;;;37.42;23.73;;;;;;;12.67;44.76;103526.56;1736165;81;21740;-79
2022/03/22 10:17:38;;;;;;;37.35;23.98;;;;;;;12.76;44.57;103519.20;1732164;80;21049;-80
2022/03/22 10:20:06;;;;;;;37.30;22.82;;;;;;;12.82;44.34;103516.91;1722710;82;21103;-80
2022/03/22 10:22:34;;;;;;;29.18;20.25;;;;;;;12.92;44.18;103513.09;1736290;81;21538;-80
2022/03/22 10:25:03;;;;;;;37.50;26.23;;;;;;;13.00;43.95;103516.19;1733985;80;21657;-80
2022/03/22 10:27:35;;;;;;;36.00;24.75;;;;;;;13.05;43.81;103513.41;1731802;81;21062;-80
2022/03/22 10:30:07;;;;;;;41.73;24.45;;;;;;;13.14;43.58;103511.73;1729882;81;21064;-80
2022/03/22 10:32:51;;;;;;;31.25;20.75;;;;;;;13.20;43.45;103513.40;1700135;82;21168;-80
2022/03/22 10:35:34;;;;;;;29.87;18.87;;;;;;;13.25;43.18;103509.30;1735196;80;21092;-80
2022/03/22 10:38:07;;;;;;;26.15;18.27;;;;;;;13.33;42.93;103504.06;1733727;80;22390;-79
2022/03/22 10:40:44;;;;;;;32.80;22.07;;;;;;;13.38;42.77;103505.25;1745033;81;21065;-78
2022/03/22 10:43:14;;;;;;;29.40;20.40;;;;;;;13.46;42.44;103506.07;1742789;80;21007;-79
2022/03/22 10:45:49;;;;;;;27.98;20.62;;;;;;;13.53;42.25;103500.31;1727853;81;21144;-79
2022/03/22 10:48:27;;;;;;;29.40;19.27;;;;;;;13.57;42.12;103495.69;1730039;81;21161;-79
2022/03/22 10:50:59;;;;;;;31.40;19.98;;;;;;;13.62;41.95;103488.92;1721855;80;21751;-79
2022/03/22 10:53:27;;;;;;;27.98;19.57;;;;;;;13.66;41.50;103488.27;1735286;82;21073;-79
2022/03/22 10:56:01;;;;;;;28.15;20.32;;;;;;;13.68;41.34;103483.97;1727055;81;21491;-80
2022/03/22 10:58:28;;;;;;;;;;;;;;;13.73;41.26;103471.91;1738431;80;21605;-80
2022/03/22 11:00:57;;;;;;;27.98;19.05;;;;;;;13.79;40.98;103468.69;1734212;81;20764;-80
2022/03/22 11:03:25;;;;;;;26.17;17.07;;;;;;;13.84;40.81;103464.99;1720818;81;21778;-80
2022/03/22 11:05:55;;;;;;;29.57;19.00;;;;;;;13.86;40.83;103462.91;1719414;81;21134;-80
2022/03/22 11:08:27;;;;;;;27.90;18.98;;;;;;;13.94;40.46;103459.36;1718638;81;21121;-80
2022/03/22 11:10:54;;;;;;;22.22;16.73;;;;;;;13.97;40.18;103459.11;1711998;82;21090;-80
2022/03/22 11:13:23;;;;;;;27.75;19.02;;;;;;;14.02;39.99;103451.83;1729293;81;21087;-80
2022/03/22 11:15:51;;;;;;;26.73;17.52;;;;;;;14.03;39.88;103446.62;1715936;82;21915;-80
2022/03/22 11:18:20;;;;;;;24.05;16.30;;;;;;;14.06;39.56;103445.47;1737060;81;21457;-80
2022/03/22 11:20:53;;;;;;;30.60;17.98;;;;;;;14.11;39.78;103446.59;1747441;80;21080;-81
2022/03/22 11:23:20;;;;;;;34.77;19.37;;;;;;;14.15;39.64;103438.41;1735607;81;21103;-79
2022/03/22 11:25:47;;;;;;;22.02;17.35;;;;;;;14.15;38.98;103448.61;1737379;82;21311;-80
2022/03/22 11:28:19;;;;;;;29.70;17.00;;;;;;;14.15;39.00;103442.38;1738295;80;22243;-80
2022/03/22 11:30:46;;;;;;;26.85;19.40;;;;;;;14.14;38.95;103436.19;1742639;80;21135;-80
2022/03/22 11:36:03;;;;;;;26.57;14.58;;;;;;;14.18;38.87;103424.91;1741602;81;21567;-80
2022/03/22 11:38:51;;;;;;;21.07;14.78;;;;;;;14.24;38.84;103422.10;1744339;81;21132;-80
2022/03/22 11:44:27;;;;;;;20.43;13.60;;;;;;;14.30;38.10;103415.80;1724100;81;21098;-80
2022/03/22 11:47:07;;;;;;;23.20;14.38;;;;;;;14.30;38.12;103414.08;1733471;82;21015;-80
2022/03/22 11:50:00;;;;;;;19.35;13.50;;;;;;;14.34;37.96;103416.44;1745925;82;21073;-80
2022/03/22 11:52:39;;;;;;;21.57;14.45;;;;;;;14.39;37.93;103411.88;1745854;81;21069;-80
2022/03/22 11:55:15;;;;;;;26.77;16.62;;;;;;;14.45;37.89;103408.67;1745779;82;21835;-80
2022/03/22 11:57:52;;;;;;;25.50;15.03;;;;;;;14.46;37.59;103401.19;1739663;81;21548;-79
2022/03/22 12:00:58;;;;;;;20.25;14.60;;;;;;;14.49;37.59;103401.36;1721733;81;22260;-79
2022/03/22 12:03:31;;;;;;;16.00;11.55;;;;;;;14.55;37.23;103402.99;1715896;81;22144;-79